EW0493 Weather Reports


time (UTC)temp
F
wind
direction
speed
knots
gust
knots
rain 1hr
in
rain 24hr
in
rain mn
in
humidity
%
barometer
mb
20220627213047 76 233 0.0 0.9 0.00 0.27 0.10 64 1012.4
20220627211637 76 207 0.0 0.9 0.00 0.27 0.10 64 1012.2
20220627210010 75 166 0.0 0.9 0.00 0.27 0.10 69 1012.2
20220627204609 75 267 0.0 0.9 0.00 0.27 0.10 66 1012.2
20220627203150 74 232 0.0 0.9 0.00 0.27 0.10 71 1012.3
20220627201543 73 210 0.0 1.7 0.00 0.27 0.10 73 1012.4
20220627200141 73 229 0.0 0.9 0.00 0.27 0.10 73 1012.4
20220627194604 73 243 0.0 0.9 0.00 0.27 0.10 73 1012.6
20220627193042 73 252 0.0 0.9 0.00 0.27 0.10 70 1012.7
20220627191640 74 70 0.0 1.7 0.00 0.27 0.10 70 1012.7
20220627190057 73 228 0.0 4.3 0.00 0.27 0.10 66 1012.8
20220627184527 74 262 0.0 2.6 0.00 0.27 0.10 72 1012.9
20220627183106 74 301 0.0 0.9 0.00 0.27 0.10 76 1013.1
20220627181526 74 245 0.9 4.3 0.00 0.27 0.10 71 1013.1
20220627180114 73 208 0.0 1.7 0.00 0.27 0.10 79 1013.1
20220627174557 73 169 0.9 4.3 0.00 0.27 0.10 78 1013.3
20220627173018 73 197 0.0 3.5 0.00 0.27 0.10 80 1013.3
20220627171556 72 243 0.0 1.7 0.00 0.27 0.10 80 1013.4
20220627170042 71 233 0.0 1.7 0.00 0.27 0.10 85 1013.3
20220627164633 70 130 0.0 2.6 0.00 0.27 0.10 83 1013.3
20220627163041 69 224 0.0 0.9 0.00 0.27 0.10 84 1013.3
20220627161638 68 224 0.0 2.6 0.00 0.27 0.10 84 1013.6
20220627160052 68 75 0.0 0.9 0.00 0.27 0.10 83 1013.5
20220627154637 67 170 0.0 0.9 0.00 0.27 0.10 90 1013.4
20220627153050 66 91 0.0 0.9 0.00 0.27 0.10 95 1013.2
20220627151507 64 51 0.0 0.0 0.00 0.27 0.10 96 1013.1
20220627150107 65 53 0.0 0.0 0.00 0.27 0.10 95 1013.0
20220627144636 68 319 0.0 0.9 0.00 0.27 0.10 98 1012.9
20220627143041 69 242 0.0 0.9 0.01 0.27 0.10 99 1012.7
20220627141639 69 208 0.0 2.6 0.02 0.27 0.10 99 1012.6
20220627140102 69 232 0.0 3.5 0.03 0.27 0.10 99 1012.6
20220627134538 69 148 0.0 2.6 0.06 0.27 0.10 100 1012.6
20220627133141 69 225 0.0 5.2 0.05 0.26 0.09 100 1012.6
20220627131610 69 245 0.0 2.6 0.04 0.25 0.08 100 1012.5
20220627130155 69 218 0.0 0.9 0.03 0.24 0.07 100 1012.5
20220627124604 69 183 0.0 0.0 0.00 0.21 0.04 100 1012.4
20220627123139 69 229 0.0 0.0 0.00 0.21 0.04 100 1012.4
20220627121551 69 212 0.0 0.9 0.00 0.21 0.04 100 1012.4
20220627120144 68 280 0.0 0.0 0.00 0.21 0.04 100 1012.3
20220627114551 68 269 0.0 0.9 0.03 0.21 0.04 100 1012.3
20220627113005 68 245 0.0 0.0 0.03 0.21 0.04 100 1012.3
20220627111602 68 245 0.0 0.9 0.03 0.21 0.04 100 1012.3
20220627110001 68 145 0.0 0.0 0.03 0.21 0.04 100 1012.1
20220627104600 68 264 0.0 0.9 0.00 0.18 0.01 100 1012.0
20220627103155 68 285 0.0 0.9 0.00 0.18 0.01 100 1011.9
20220627101548 68 246 0.0 0.0 0.00 0.18 0.01 100 1011.8
20220627100016 68 207 0.0 0.0 0.00 0.18 0.01 100 1011.8
20220627094602 68 109 0.0 0.9 0.00 0.18 0.01 100 1011.8
20220627093154 68 134 0.0 1.7 0.00 0.18 0.01 100 1011.8
20220627091536 68 312 0.0 1.7 0.01 0.18 0.01 100 1011.8
20220627090137 68 110 0.0 0.9 0.01 0.18 0.01 100 1011.7
20220627084612 68 143 0.0 2.6 0.01 0.18 0.01 100 1011.7
20220627083010 68 88 0.0 1.7 0.01 0.18 0.01 100 1011.7
20220627081604 68 307 0.0 3.5 0.00 0.17 0.00 100 1011.9
20220627080040 68 191 0.0 3.5 0.00 0.17 0.00 100 1011.9
20220627074552 68 49 0.0 1.7 0.00 0.17 0.00 100 1011.9
20220627073019 68 77 0.0 2.6 0.00 0.17 0.00 100 1012.2
20220627071515 68 93 0.0 0.9 0.00 0.17 0.00 100 1012.3
20220627070011 67 124 0.0 2.6 0.00 0.17 0.00 100 1012.5
20220627064519 67 118 0.0 1.7 0.00 0.17 0.00 100 1012.6
20220627063124 67 139 0.0 0.9 0.00 0.17 0.00 100 1012.7
20220627061522 68 114 0.0 0.9 0.00 0.17 0.00 100 1013.1
20220627060010 68 163 0.0 0.0 0.00 0.17 0.00 100 1013.1
20220627054523 68 113 0.0 0.9 0.00 0.17 0.00 100 1013.1
20220627053016 68 339 0.0 0.9 0.00 0.17 0.00 100 1013.2
20220627051516 68 107 0.0 1.7 0.00 0.17 0.00 100 1013.3
20220627050100 68 176 0.0 1.7 0.00 0.17 0.00 100 1013.4
20220627044517 68 105 0.0 0.9 0.00 0.17 0.00 100 1013.4
20220627043008 68 101 0.0 1.7 0.00 0.17 0.00 100 1013.5
20220627041507 68 93 0.0 0.9 0.00 0.17 0.00 100 1013.5
20220627040020 68 270 0.0 0.9 0.00 0.17 0.00 99 1013.7
20220627034511 68 270 0.0 1.7 0.00 0.17 0.17 99 1013.9
20220627033003 68 104 0.0 0.9 0.01 0.17 0.17 99 1013.9
20220627031518 68 131 0.0 0.0 0.01 0.17 0.17 99 1013.9
20220627030007 68 108 0.0 1.7 0.03 0.17 0.17 99 1014.0
20220627024522 68 291 0.0 0.9 0.11 0.17 0.17 99 1014.1
20220627023011 69 113 0.0 1.7 0.15 0.16 0.16 99 1014.3
20220627021526 69 109 0.0 0.0 0.16 0.16 0.16 99 1014.5
20220627020058 69 111 0.0 1.7 0.14 0.14 0.14 98 1014.5
20220627014551 69 158 0.0 4.3 0.06 0.06 0.06 97 1014.7
20220627013025 69 98 0.0 4.3 0.01 0.01 0.01 96 1014.5
20220627011516 69 149 0.0 2.6 0.00 0.00 0.00 95 1014.6
20220627010053 70 135 0.0 2.6 0.00 0.00 0.00 95 1014.5
20220627004559 70 23 0.0 1.7 0.00 0.00 0.00 93 1014.4
20220626231600 76 204 0.0 0.0 0.00 0.00 0.00 76 1014.1